Aérodrome :
LOGIN :

S'inscrire | Disclaimer

   EN    FR    IT 

 










Légende :    VFR   VFR Marginal   IFR   IFR Intensif   IFR Très Intensif
Visi : 
Plafond : 
>= 8 km
>= 3000ft
5 à 8 km
1000 à 3000 ft
1500m à 5 km
500 à 1000 ft
800 à 1500m
200 à 500 ft
< 800m
< 200 ft
Symboles :   Orages  Brouillard  Fortes neiges  Fortes précipitations  Vent > 20 kt
SIGMETs :   Divers  Orages  Givrage  Turbulence  Onde Orograph.  Cendres Volcan.






- Altitude de l'aérodrome : 309 ft
- Code IATA : FNI


LFTW - Nîmes Garons

DERNIER METAR :
  • 122200Z AUTO 29005KT 260V320 CAVOK 06/01 Q1004

METARs EXPIRÉS :
  • 122130Z AUTO 31005KT CAVOK 06/02 Q1004
  • 122100Z AUTO 31006KT CAVOK 07/02 Q1004
  • 122030Z AUTO 32004KT CAVOK 06/02 Q1004
  • 122000Z AUTO 32006KT CAVOK 07/02 Q1005
  • 121930Z AUTO 32006KT CAVOK 07/02 Q1005

TAF TAF LFTW
Valide du 12 à 09h jusqu'au 13 à 09h UTC


120800Z 1209/1309 30006KT CAVOK
TEMPO 1212/1216 36016KT



MET'MAP, la Météo Aéronautique d'un coup d'oeil ! - Copyright ORBIFLY Décembre 2007 - Disclaimer

ORBIFLY MET'MAP TEAM :

Programmation & Développement : Alexandra Zaïnal
Conception & Développement : Baudouin d'Aumeries
Co-Programmation & Développement : Marc-Olivier Méhu
Soutien technique & logistique : Manuel Goepfert

Contact : metmap@orbifly.com




SOURCES & CREDITS :

   NOAA